sensor_id;sensor_type;location;lat;lon;timestamp;P1;durP1;ratioP1;P2;durP2;ratioP2
297;SDS011;133;49.626;9.680;2023-04-15T00:01:24;5.50;;;4.20;;
297;SDS011;133;49.626;9.680;2023-04-15T00:03:51;6.27;;;5.30;;
297;SDS011;133;49.626;9.680;2023-04-15T00:06:18;4.97;;;4.67;;
297;SDS011;133;49.626;9.680;2023-04-15T00:08:45;5.60;;;4.40;;
297;SDS011;133;49.626;9.680;2023-04-15T00:11:11;5.50;;;4.87;;
297;SDS011;133;49.626;9.680;2023-04-15T00:13:37;5.63;;;5.00;;
297;SDS011;133;49.626;9.680;2023-04-15T00:16:03;8.10;;;6.10;;
297;SDS011;133;49.626;9.680;2023-04-15T00:18:30;6.73;;;5.90;;
297;SDS011;133;49.626;9.680;2023-04-15T00:20:56;5.60;;;5.30;;
297;SDS011;133;49.626;9.680;2023-04-15T00:23:22;6.13;;;5.83;;
297;SDS011;133;49.626;9.680;2023-04-15T00:25:48;6.70;;;6.00;;
297;SDS011;133;49.626;9.680;2023-04-15T00:28:14;6.33;;;5.97;;
297;SDS011;133;49.626;9.680;2023-04-15T00:30:41;8.47;;;5.10;;
297;SDS011;133;49.626;9.680;2023-04-15T00:33:07;4.40;;;4.10;;
297;SDS011;133;49.626;9.680;2023-04-15T00:35:33;3.80;;;3.60;;
297;SDS011;133;49.626;9.680;2023-04-15T00:37:58;3.83;;;3.63;;
297;SDS011;133;49.626;9.680;2023-04-15T00:40:24;4.67;;;4.40;;
297;SDS011;133;49.626;9.680;2023-04-15T00:42:50;4.40;;;4.10;;
297;SDS011;133;49.626;9.680;2023-04-15T00:45:16;3.73;;;3.53;;
297;SDS011;133;49.626;9.680;2023-04-15T00:47:43;3.37;;;3.17;;
297;SDS011;133;49.626;9.680;2023-04-15T00:50:11;4.30;;;3.77;;
297;SDS011;133;49.626;9.680;2023-04-15T00:52:37;4.20;;;3.27;;
297;SDS011;133;49.626;9.680;2023-04-15T00:55:04;4.40;;;4.10;;
297;SDS011;133;49.626;9.680;2023-04-15T00:57:30;4.10;;;3.90;;
297;SDS011;133;49.626;9.680;2023-04-15T00:59:57;8.10;;;4.80;;
297;SDS011;133;49.626;9.680;2023-04-15T01:02:23;4.67;;;4.40;;
297;SDS011;133;49.626;9.680;2023-04-15T01:04:48;5.20;;;4.60;;
297;SDS011;133;49.626;9.680;2023-04-15T01:07:14;5.87;;;5.13;;
297;SDS011;133;49.626;9.680;2023-04-15T01:09:40;5.77;;;5.47;;
297;SDS011;133;49.626;9.680;2023-04-15T01:12:06;5.50;;;5.20;;
297;SDS011;133;49.626;9.680;2023-04-15T01:14:34;5.87;;;5.57;;
297;SDS011;133;49.626;9.680;2023-04-15T01:17:00;5.60;;;5.30;;
297;SDS011;133;49.626;9.680;2023-04-15T01:19:26;8.57;;;6.07;;
297;SDS011;133;49.626;9.680;2023-04-15T01:21:52;8.20;;;6.30;;
297;SDS011;133;49.626;9.680;2023-04-15T01:24:18;7.17;;;4.70;;
297;SDS011;133;49.626;9.680;2023-04-15T01:26:44;5.17;;;4.50;;
297;SDS011;133;49.626;9.680;2023-04-15T01:29:10;4.67;;;4.37;;
297;SDS011;133;49.626;9.680;2023-04-15T01:31:36;5.93;;;4.30;;
297;SDS011;133;49.626;9.680;2023-04-15T01:34:01;7.07;;;4.00;;
297;SDS011;133;49.626;9.680;2023-04-15T01:36:27;4.43;;;4.13;;
297;SDS011;133;49.626;9.680;2023-04-15T01:38:54;4.90;;;4.60;;
297;SDS011;133;49.626;9.680;2023-04-15T01:41:21;4.53;;;4.23;;
297;SDS011;133;49.626;9.680;2023-04-15T01:43:50;6.57;;;4.40;;
297;SDS011;133;49.626;9.680;2023-04-15T01:46:16;4.37;;;4.07;;
297;SDS011;133;49.626;9.680;2023-04-15T01:48:42;4.43;;;4.13;;
297;SDS011;133;49.626;9.680;2023-04-15T01:51:07;4.60;;;4.30;;
297;SDS011;133;49.626;9.680;2023-04-15T01:53:33;3.80;;;3.60;;
297;SDS011;133;49.626;9.680;2023-04-15T01:55:59;4.93;;;4.23;;
297;SDS011;133;49.626;9.680;2023-04-15T01:58:25;8.27;;;4.97;;
297;SDS011;133;49.626;9.680;2023-04-15T02:00:51;4.80;;;4.50;;
297;SDS011;133;49.626;9.680;2023-04-15T02:03:16;5.60;;;5.30;;
297;SDS011;133;49.626;9.680;2023-04-15T02:05:42;6.07;;;5.77;;
297;SDS011;133;49.626;9.680;2023-04-15T02:08:08;5.23;;;4.70;;
297;SDS011;133;49.626;9.680;2023-04-15T02:10:33;4.67;;;4.37;;
297;SDS011;133;49.626;9.680;2023-04-15T02:12:59;5.80;;;5.27;;
297;SDS011;133;49.626;9.680;2023-04-15T02:15:25;5.30;;;5.03;;
297;SDS011;133;49.626;9.680;2023-04-15T02:17:51;5.83;;;5.10;;
297;SDS011;133;49.626;9.680;2023-04-15T02:20:19;8.07;;;5.80;;
297;SDS011;133;49.626;9.680;2023-04-15T02:22:45;6.40;;;5.10;;
297;SDS011;133;49.626;9.680;2023-04-15T02:25:12;5.40;;;5.10;;
297;SDS011;133;49.626;9.680;2023-04-15T02:27:38;5.53;;;5.23;;
297;SDS011;133;49.626;9.680;2023-04-15T02:30:04;11.53;;;5.37;;
297;SDS011;133;49.626;9.680;2023-04-15T02:32:31;9.37;;;5.70;;
297;SDS011;133;49.626;9.680;2023-04-15T02:35:00;6.60;;;5.77;;
297;SDS011;133;49.626;9.680;2023-04-15T02:37:27;7.60;;;5.07;;
297;SDS011;133;49.626;9.680;2023-04-15T02:39:54;5.37;;;5.07;;
297;SDS011;133;49.626;9.680;2023-04-15T02:42:20;5.70;;;5.40;;
297;SDS011;133;49.626;9.680;2023-04-15T02:44:46;5.43;;;5.13;;
297;SDS011;133;49.626;9.680;2023-04-15T02:47:11;6.30;;;5.07;;
297;SDS011;133;49.626;9.680;2023-04-15T02:49:38;6.10;;;5.27;;
297;SDS011;133;49.626;9.680;2023-04-15T02:52:04;6.00;;;5.10;;
297;SDS011;133;49.626;9.680;2023-04-15T02:54:30;7.90;;;6.10;;
297;SDS011;133;49.626;9.680;2023-04-15T02:56:58;5.97;;;5.30;;
297;SDS011;133;49.626;9.680;2023-04-15T02:59:23;5.27;;;4.93;;
297;SDS011;133;49.626;9.680;2023-04-15T03:01:49;6.67;;;6.27;;
297;SDS011;133;49.626;9.680;2023-04-15T03:04:15;6.33;;;5.43;;
297;SDS011;133;49.626;9.680;2023-04-15T03:06:41;9.70;;;5.43;;
297;SDS011;133;49.626;9.680;2023-04-15T03:09:06;6.73;;;5.70;;
297;SDS011;133;49.626;9.680;2023-04-15T03:11:32;6.43;;;5.97;;
297;SDS011;133;49.626;9.680;2023-04-15T03:13:59;6.30;;;5.47;;
297;SDS011;133;49.626;9.680;2023-04-15T03:16:24;5.87;;;5.50;;
297;SDS011;133;49.626;9.680;2023-04-15T03:18:50;6.17;;;5.87;;
297;SDS011;133;49.626;9.680;2023-04-15T03:21:16;5.83;;;5.43;;
297;SDS011;133;49.626;9.680;2023-04-15T03:23:42;6.47;;;5.80;;
297;SDS011;133;49.626;9.680;2023-04-15T03:26:07;5.67;;;5.37;;
297;SDS011;133;49.626;9.680;2023-04-15T03:28:33;6.87;;;5.53;;
297;SDS011;133;49.626;9.680;2023-04-15T03:30:58;6.20;;;5.50;;
297;SDS011;133;49.626;9.680;2023-04-15T03:33:24;7.10;;;6.60;;
297;SDS011;133;49.626;9.680;2023-04-15T03:35:50;5.47;;;5.00;;
297;SDS011;133;49.626;9.680;2023-04-15T03:38:17;6.10;;;5.70;;
297;SDS011;133;49.626;9.680;2023-04-15T03:40:43;10.70;;;5.53;;
297;SDS011;133;49.626;9.680;2023-04-15T03:43:10;5.60;;;4.73;;
297;SDS011;133;49.626;9.680;2023-04-15T03:45:36;5.33;;;4.90;;
297;SDS011;133;49.626;9.680;2023-04-15T03:48:01;5.17;;;4.90;;
297;SDS011;133;49.626;9.680;2023-04-15T03:50:27;8.27;;;5.37;;
297;SDS011;133;49.626;9.680;2023-04-15T03:52:53;6.27;;;5.93;;
297;SDS011;133;49.626;9.680;2023-04-15T03:55:19;5.97;;;5.73;;
297;SDS011;133;49.626;9.680;2023-04-15T03:57:45;6.37;;;5.53;;
297;SDS011;133;49.626;9.680;2023-04-15T04:00:11;5.57;;;5.23;;
297;SDS011;133;49.626;9.680;2023-04-15T04:02:36;5.90;;;5.60;;
297;SDS011;133;49.626;9.680;2023-04-15T04:05:02;5.43;;;5.20;;
297;SDS011;133;49.626;9.680;2023-04-15T04:07:28;6.13;;;5.60;;
297;SDS011;133;49.626;9.680;2023-04-15T04:09:55;5.17;;;4.87;;
297;SDS011;133;49.626;9.680;2023-04-15T04:12:21;6.23;;;5.90;;
297;SDS011;133;49.626;9.680;2023-04-15T04:14:47;5.63;;;5.00;;
297;SDS011;133;49.626;9.680;2023-04-15T04:17:12;5.27;;;4.97;;
297;SDS011;133;49.626;9.680;2023-04-15T04:19:38;6.37;;;5.50;;
297;SDS011;133;49.626;9.680;2023-04-15T04:22:04;5.50;;;5.20;;
297;SDS011;133;49.626;9.680;2023-04-15T04:24:30;7.07;;;6.20;;
297;SDS011;133;49.626;9.680;2023-04-15T04:26:56;5.63;;;5.17;;
297;SDS011;133;49.626;9.680;2023-04-15T04:29:22;6.70;;;5.30;;
297;SDS011;133;49.626;9.680;2023-04-15T04:31:47;6.73;;;5.80;;
297;SDS011;133;49.626;9.680;2023-04-15T04:34:13;7.23;;;6.33;;
297;SDS011;133;49.626;9.680;2023-04-15T04:36:39;5.90;;;5.60;;
297;SDS011;133;49.626;9.680;2023-04-15T04:39:05;6.90;;;5.57;;
297;SDS011;133;49.626;9.680;2023-04-15T04:41:31;7.50;;;5.57;;
297;SDS011;133;49.626;9.680;2023-04-15T04:43:57;8.10;;;6.80;;
297;SDS011;133;49.626;9.680;2023-04-15T04:46:23;8.50;;;7.03;;
297;SDS011;133;49.626;9.680;2023-04-15T04:48:49;7.17;;;6.20;;
297;SDS011;133;49.626;9.680;2023-04-15T04:51:14;6.87;;;6.47;;
297;SDS011;133;49.626;9.680;2023-04-15T04:53:40;6.97;;;5.80;;
297;SDS011;133;49.626;9.680;2023-04-15T04:56:07;6.50;;;6.10;;
297;SDS011;133;49.626;9.680;2023-04-15T04:58:32;7.37;;;6.30;;
297;SDS011;133;49.626;9.680;2023-04-15T05:00:58;7.17;;;6.07;;
297;SDS011;133;49.626;9.680;2023-04-15T05:03:24;5.97;;;5.57;;
297;SDS011;133;49.626;9.680;2023-04-15T05:05:50;6.43;;;6.00;;
297;SDS011;133;49.626;9.680;2023-04-15T05:08:15;5.90;;;5.60;;
297;SDS011;133;49.626;9.680;2023-04-15T05:10:41;6.70;;;5.57;;
297;SDS011;133;49.626;9.680;2023-04-15T05:13:06;6.93;;;5.93;;
297;SDS011;133;49.626;9.680;2023-04-15T05:15:32;5.03;;;4.77;;
297;SDS011;133;49.626;9.680;2023-04-15T05:18:00;5.47;;;5.20;;
297;SDS011;133;49.626;9.680;2023-04-15T05:20:26;5.20;;;4.20;;
297;SDS011;133;49.626;9.680;2023-04-15T05:22:52;5.50;;;5.07;;
297;SDS011;133;49.626;9.680;2023-04-15T05:25:17;5.40;;;5.10;;
297;SDS011;133;49.626;9.680;2023-04-15T05:27:43;6.97;;;5.53;;
297;SDS011;133;49.626;9.680;2023-04-15T05:30:08;5.70;;;5.40;;
297;SDS011;133;49.626;9.680;2023-04-15T05:32:34;4.97;;;4.67;;
297;SDS011;133;49.626;9.680;2023-04-15T05:35:00;5.30;;;4.97;;
297;SDS011;133;49.626;9.680;2023-04-15T05:37:25;5.97;;;5.33;;
297;SDS011;133;49.626;9.680;2023-04-15T05:39:51;5.00;;;4.70;;
297;SDS011;133;49.626;9.680;2023-04-15T05:42:17;4.63;;;4.33;;
297;SDS011;133;49.626;9.680;2023-04-15T05:44:42;5.50;;;5.20;;
297;SDS011;133;49.626;9.680;2023-04-15T05:47:08;4.90;;;4.60;;
297;SDS011;133;49.626;9.680;2023-04-15T05:49:34;5.23;;;4.93;;
297;SDS011;133;49.626;9.680;2023-04-15T05:52:00;8.43;;;6.20;;
297;SDS011;133;49.626;9.680;2023-04-15T05:54:26;6.10;;;5.80;;
297;SDS011;133;49.626;9.680;2023-04-15T05:56:52;6.40;;;6.07;;
297;SDS011;133;49.626;9.680;2023-04-15T05:59:25;6.60;;;6.20;;
297;SDS011;133;49.626;9.680;2023-04-15T06:01:57;6.83;;;6.10;;
297;SDS011;133;49.626;9.680;2023-04-15T06:04:26;6.37;;;5.50;;
297;SDS011;133;49.626;9.680;2023-04-15T06:06:51;5.30;;;4.93;;
297;SDS011;133;49.626;9.680;2023-04-15T06:09:17;6.70;;;6.30;;
297;SDS011;133;49.626;9.680;2023-04-15T06:11:43;10.53;;;7.30;;
297;SDS011;133;49.626;9.680;2023-04-15T06:14:08;14.63;;;9.90;;
297;SDS011;133;49.626;9.680;2023-04-15T06:16:34;10.30;;;8.07;;
297;SDS011;133;49.626;9.680;2023-04-15T06:19:00;11.53;;;6.80;;
297;SDS011;133;49.626;9.680;2023-04-15T06:21:26;6.10;;;5.83;;
297;SDS011;133;49.626;9.680;2023-04-15T06:23:55;6.83;;;6.43;;
297;SDS011;133;49.626;9.680;2023-04-15T06:26:21;6.50;;;6.10;;
297;SDS011;133;49.626;9.680;2023-04-15T06:28:46;10.77;;;7.90;;
297;SDS011;133;49.626;9.680;2023-04-15T06:31:12;8.83;;;7.50;;
297;SDS011;133;49.626;9.680;2023-04-15T06:33:38;7.77;;;6.13;;
297;SDS011;133;49.626;9.680;2023-04-15T06:36:04;5.90;;;5.60;;
297;SDS011;133;49.626;9.680;2023-04-15T06:38:30;5.87;;;5.60;;
297;SDS011;133;49.626;9.680;2023-04-15T06:40:55;6.20;;;5.90;;
297;SDS011;133;49.626;9.680;2023-04-15T06:43:21;7.47;;;6.00;;
297;SDS011;133;49.626;9.680;2023-04-15T06:45:48;6.37;;;5.80;;
297;SDS011;133;49.626;9.680;2023-04-15T06:48:13;6.00;;;5.67;;
297;SDS011;133;49.626;9.680;2023-04-15T06:50:39;7.07;;;5.40;;
297;SDS011;133;49.626;9.680;2023-04-15T06:53:05;6.77;;;6.37;;
297;SDS011;133;49.626;9.680;2023-04-15T06:55:31;6.50;;;6.10;;
297;SDS011;133;49.626;9.680;2023-04-15T06:57:57;6.17;;;5.70;;
297;SDS011;133;49.626;9.680;2023-04-15T07:00:23;8.37;;;6.90;;
297;SDS011;133;49.626;9.680;2023-04-15T07:02:49;6.50;;;5.90;;
297;SDS011;133;49.626;9.680;2023-04-15T07:05:15;8.20;;;6.17;;
297;SDS011;133;49.626;9.680;2023-04-15T07:07:41;7.37;;;7.03;;
297;SDS011;133;49.626;9.680;2023-04-15T07:10:06;7.50;;;6.63;;
297;SDS011;133;49.626;9.680;2023-04-15T07:12:33;9.20;;;6.67;;
297;SDS011;133;49.626;9.680;2023-04-15T07:14:59;9.17;;;6.13;;
297;SDS011;133;49.626;9.680;2023-04-15T07:17:25;6.27;;;5.93;;
297;SDS011;133;49.626;9.680;2023-04-15T07:19:51;8.73;;;8.00;;
297;SDS011;133;49.626;9.680;2023-04-15T07:22:16;9.90;;;8.97;;
297;SDS011;133;49.626;9.680;2023-04-15T07:24:42;9.70;;;7.77;;
297;SDS011;133;49.626;9.680;2023-04-15T07:27:07;7.70;;;7.40;;
297;SDS011;133;49.626;9.680;2023-04-15T07:29:33;8.83;;;7.90;;
297;SDS011;133;49.626;9.680;2023-04-15T07:31:59;10.13;;;6.83;;
297;SDS011;133;49.626;9.680;2023-04-15T07:34:24;7.27;;;6.87;;
297;SDS011;133;49.626;9.680;2023-04-15T07:36:50;13.53;;;7.67;;
297;SDS011;133;49.626;9.680;2023-04-15T07:39:16;9.03;;;7.60;;
297;SDS011;133;49.626;9.680;2023-04-15T07:41:43;7.10;;;6.67;;
297;SDS011;133;49.626;9.680;2023-04-15T07:44:08;7.80;;;6.37;;
297;SDS011;133;49.626;9.680;2023-04-15T07:46:34;7.00;;;6.60;;
297;SDS011;133;49.626;9.680;2023-04-15T07:49:01;8.40;;;7.60;;
297;SDS011;133;49.626;9.680;2023-04-15T07:51:26;7.63;;;6.67;;
297;SDS011;133;49.626;9.680;2023-04-15T07:53:53;9.03;;;7.20;;
297;SDS011;133;49.626;9.680;2023-04-15T07:56:19;6.20;;;5.90;;
297;SDS011;133;49.626;9.680;2023-04-15T07:58:47;5.90;;;5.60;;
297;SDS011;133;49.626;9.680;2023-04-15T08:01:13;7.17;;;5.50;;
297;SDS011;133;49.626;9.680;2023-04-15T08:03:39;8.23;;;5.30;;
297;SDS011;133;49.626;9.680;2023-04-15T08:06:05;5.63;;;5.27;;
297;SDS011;133;49.626;9.680;2023-04-15T08:08:30;6.30;;;5.10;;
297;SDS011;133;49.626;9.680;2023-04-15T08:10:57;5.80;;;5.50;;
297;SDS011;133;49.626;9.680;2023-04-15T08:13:22;5.73;;;5.37;;
297;SDS011;133;49.626;9.680;2023-04-15T08:15:52;6.37;;;5.80;;
297;SDS011;133;49.626;9.680;2023-04-15T08:18:37;5.27;;;5.03;;
297;SDS011;133;49.626;9.680;2023-04-15T08:21:03;6.20;;;5.30;;
297;SDS011;133;49.626;9.680;2023-04-15T08:23:29;5.43;;;5.17;;
297;SDS011;133;49.626;9.680;2023-04-15T08:25:56;6.90;;;6.50;;
297;SDS011;133;49.626;9.680;2023-04-15T08:28:22;6.17;;;5.57;;
297;SDS011;133;49.626;9.680;2023-04-15T08:30:47;7.00;;;5.10;;
297;SDS011;133;49.626;9.680;2023-04-15T08:33:13;6.60;;;5.60;;
297;SDS011;133;49.626;9.680;2023-04-15T08:35:39;7.00;;;5.30;;
297;SDS011;133;49.626;9.680;2023-04-15T08:38:04;9.87;;;5.50;;
297;SDS011;133;49.626;9.680;2023-04-15T08:40:33;5.60;;;5.30;;
297;SDS011;133;49.626;9.680;2023-04-15T08:43:05;8.47;;;5.50;;
297;SDS011;133;49.626;9.680;2023-04-15T08:45:37;5.30;;;5.03;;
297;SDS011;133;49.626;9.680;2023-04-15T08:48:04;6.50;;;5.80;;
297;SDS011;133;49.626;9.680;2023-04-15T08:50:31;6.03;;;5.73;;
297;SDS011;133;49.626;9.680;2023-04-15T08:53:00;5.83;;;4.90;;
297;SDS011;133;49.626;9.680;2023-04-15T08:55:27;6.30;;;5.20;;
297;SDS011;133;49.626;9.680;2023-04-15T08:57:57;8.77;;;5.00;;
297;SDS011;133;49.626;9.680;2023-04-15T09:00:23;5.00;;;4.70;;
297;SDS011;133;49.626;9.680;2023-04-15T09:02:50;5.37;;;5.07;;
297;SDS011;133;49.626;9.680;2023-04-15T09:05:16;7.67;;;4.50;;
297;SDS011;133;49.626;9.680;2023-04-15T09:07:41;8.60;;;5.60;;
297;SDS011;133;49.626;9.680;2023-04-15T09:10:08;6.33;;;4.47;;
297;SDS011;133;49.626;9.680;2023-04-15T09:12:34;5.20;;;4.40;;
297;SDS011;133;49.626;9.680;2023-04-15T09:15:01;4.97;;;4.27;;
297;SDS011;133;49.626;9.680;2023-04-15T09:17:27;5.27;;;4.43;;
297;SDS011;133;49.626;9.680;2023-04-15T09:20:29;5.60;;;4.17;;
297;SDS011;133;49.626;9.680;2023-04-15T09:22:49;4.27;;;3.90;;
297;SDS011;133;49.626;9.680;2023-04-15T09:27:47;5.87;;;4.23;;
297;SDS011;133;49.626;9.680;2023-04-15T09:30:13;4.53;;;4.00;;
297;SDS011;133;49.626;9.680;2023-04-15T09:32:53;3.87;;;3.70;;
297;SDS011;133;49.626;9.680;2023-04-15T09:35:20;3.90;;;3.70;;
297;SDS011;133;49.626;9.680;2023-04-15T09:37:47;3.70;;;3.50;;
297;SDS011;133;49.626;9.680;2023-04-15T09:40:13;3.90;;;3.70;;
297;SDS011;133;49.626;9.680;2023-04-15T09:42:55;5.47;;;3.70;;
297;SDS011;133;49.626;9.680;2023-04-15T09:45:21;4.20;;;3.80;;
297;SDS011;133;49.626;9.680;2023-04-15T09:47:47;3.83;;;3.63;;
297;SDS011;133;49.626;9.680;2023-04-15T09:50:15;4.70;;;3.40;;
297;SDS011;133;49.626;9.680;2023-04-15T09:52:41;4.40;;;4.03;;
297;SDS011;133;49.626;9.680;2023-04-15T09:55:07;4.00;;;3.70;;
297;SDS011;133;49.626;9.680;2023-04-15T09:57:34;3.87;;;3.20;;
297;SDS011;133;49.626;9.680;2023-04-15T10:00:02;3.73;;;3.40;;
297;SDS011;133;49.626;9.680;2023-04-15T10:02:29;3.87;;;3.67;;
297;SDS011;133;49.626;9.680;2023-04-15T10:04:56;4.37;;;3.33;;
297;SDS011;133;49.626;9.680;2023-04-15T10:07:22;3.50;;;3.20;;
297;SDS011;133;49.626;9.680;2023-04-15T10:09:49;2.67;;;2.50;;
297;SDS011;133;49.626;9.680;2023-04-15T10:12:18;2.77;;;2.57;;
297;SDS011;133;49.626;9.680;2023-04-15T10:14:44;2.47;;;2.30;;
297;SDS011;133;49.626;9.680;2023-04-15T10:17:13;2.70;;;2.50;;
297;SDS011;133;49.626;9.680;2023-04-15T10:19:41;2.40;;;2.20;;
297;SDS011;133;49.626;9.680;2023-04-15T10:22:08;2.87;;;2.53;;
297;SDS011;133;49.626;9.680;2023-04-15T10:24:34;3.20;;;2.60;;
297;SDS011;133;49.626;9.680;2023-04-15T10:27:00;3.07;;;2.67;;
297;SDS011;133;49.626;9.680;2023-04-15T10:29:28;3.53;;;2.43;;
297;SDS011;133;49.626;9.680;2023-04-15T10:31:54;2.80;;;2.60;;
297;SDS011;133;49.626;9.680;2023-04-15T10:34:21;3.50;;;2.27;;
297;SDS011;133;49.626;9.680;2023-04-15T10:36:48;2.53;;;2.40;;
297;SDS011;133;49.626;9.680;2023-04-15T10:42:13;3.30;;;2.20;;
297;SDS011;133;49.626;9.680;2023-04-15T10:44:41;3.20;;;2.50;;
297;SDS011;133;49.626;9.680;2023-04-15T10:47:12;2.40;;;2.20;;
297;SDS011;133;49.626;9.680;2023-04-15T10:49:46;2.80;;;2.60;;
297;SDS011;133;49.626;9.680;2023-04-15T10:52:13;2.60;;;2.43;;
297;SDS011;133;49.626;9.680;2023-04-15T10:54:40;3.43;;;3.00;;
297;SDS011;133;49.626;9.680;2023-04-15T10:57:07;3.00;;;2.80;;
297;SDS011;133;49.626;9.680;2023-04-15T10:59:58;3.00;;;2.70;;
297;SDS011;133;49.626;9.680;2023-04-15T11:02:45;2.90;;;2.70;;
297;SDS011;133;49.626;9.680;2023-04-15T11:05:13;2.43;;;2.23;;
297;SDS011;133;49.626;9.680;2023-04-15T11:12:42;2.60;;;2.40;;
297;SDS011;133;49.626;9.680;2023-04-15T11:20:37;2.50;;;2.30;;
297;SDS011;133;49.626;9.680;2023-04-15T11:23:04;2.53;;;2.33;;
297;SDS011;133;49.626;9.680;2023-04-15T11:25:30;3.30;;;2.70;;
297;SDS011;133;49.626;9.680;2023-04-15T11:27:57;3.13;;;2.57;;
297;SDS011;133;49.626;9.680;2023-04-15T11:30:26;3.20;;;2.20;;
297;SDS011;133;49.626;9.680;2023-04-15T11:32:54;3.10;;;2.40;;
297;SDS011;133;49.626;9.680;2023-04-15T11:35:22;3.53;;;2.50;;
297;SDS011;133;49.626;9.680;2023-04-15T11:37:48;2.80;;;2.30;;
297;SDS011;133;49.626;9.680;2023-04-15T11:40:14;4.03;;;2.10;;
297;SDS011;133;49.626;9.680;2023-04-15T11:42:44;3.13;;;2.67;;
297;SDS011;133;49.626;9.680;2023-04-15T11:45:12;3.90;;;2.93;;
297;SDS011;133;49.626;9.680;2023-04-15T11:47:40;2.60;;;2.40;;
297;SDS011;133;49.626;9.680;2023-04-15T11:50:22;3.10;;;2.90;;
297;SDS011;133;49.626;9.680;2023-04-15T11:53:01;3.33;;;2.50;;
297;SDS011;133;49.626;9.680;2023-04-15T11:55:28;7.70;;;3.20;;
297;SDS011;133;49.626;9.680;2023-04-15T11:58:14;3.23;;;3.03;;
297;SDS011;133;49.626;9.680;2023-04-15T12:00:41;3.47;;;3.10;;
297;SDS011;133;49.626;9.680;2023-04-15T12:03:27;4.00;;;3.30;;
297;SDS011;133;49.626;9.680;2023-04-15T12:11:40;5.50;;;2.83;;
297;SDS011;133;49.626;9.680;2023-04-15T12:16:40;3.77;;;3.33;;
297;SDS011;133;49.626;9.680;2023-04-15T12:19:12;2.70;;;2.50;;
297;SDS011;133;49.626;9.680;2023-04-15T12:21:40;3.10;;;2.77;;
297;SDS011;133;49.626;9.680;2023-04-15T12:24:09;3.00;;;2.80;;
297;SDS011;133;49.626;9.680;2023-04-15T12:29:11;3.00;;;2.80;;
297;SDS011;133;49.626;9.680;2023-04-15T12:31:47;3.10;;;2.90;;
297;SDS011;133;49.626;9.680;2023-04-15T12:34:16;3.13;;;2.93;;
297;SDS011;133;49.626;9.680;2023-04-15T12:36:56;2.90;;;2.70;;
297;SDS011;133;49.626;9.680;2023-04-15T12:39:27;2.90;;;2.70;;
297;SDS011;133;49.626;9.680;2023-04-15T12:41:54;3.50;;;3.30;;
297;SDS011;133;49.626;9.680;2023-04-15T12:44:21;2.90;;;2.70;;
297;SDS011;133;49.626;9.680;2023-04-15T12:46:48;2.93;;;2.80;;
297;SDS011;133;49.626;9.680;2023-04-15T12:49:14;2.97;;;2.77;;
297;SDS011;133;49.626;9.680;2023-04-15T12:51:40;5.70;;;3.60;;
297;SDS011;133;49.626;9.680;2023-04-15T12:54:06;4.43;;;3.00;;
297;SDS011;133;49.626;9.680;2023-04-15T12:56:32;3.47;;;3.27;;
297;SDS011;133;49.626;9.680;2023-04-15T12:58:57;3.37;;;3.17;;
297;SDS011;133;49.626;9.680;2023-04-15T13:01:23;3.50;;;3.30;;
297;SDS011;133;49.626;9.680;2023-04-15T13:03:49;3.20;;;3.00;;
297;SDS011;133;49.626;9.680;2023-04-15T13:06:15;5.23;;;3.10;;
297;SDS011;133;49.626;9.680;2023-04-15T13:08:41;4.37;;;4.10;;
297;SDS011;133;49.626;9.680;2023-04-15T13:11:07;4.00;;;3.80;;
297;SDS011;133;49.626;9.680;2023-04-15T13:13:32;3.37;;;3.20;;
297;SDS011;133;49.626;9.680;2023-04-15T13:15:58;2.80;;;2.60;;
297;SDS011;133;49.626;9.680;2023-04-15T13:18:24;2.90;;;2.70;;
297;SDS011;133;49.626;9.680;2023-04-15T13:20:50;3.17;;;2.97;;
297;SDS011;133;49.626;9.680;2023-04-15T13:23:16;3.90;;;3.70;;
297;SDS011;133;49.626;9.680;2023-04-15T13:25:41;3.13;;;2.93;;
297;SDS011;133;49.626;9.680;2023-04-15T13:28:07;3.30;;;3.10;;
297;SDS011;133;49.626;9.680;2023-04-15T13:30:36;3.60;;;3.40;;
297;SDS011;133;49.626;9.680;2023-04-15T13:33:03;5.60;;;3.30;;
297;SDS011;133;49.626;9.680;2023-04-15T13:35:29;3.37;;;3.17;;
297;SDS011;133;49.626;9.680;2023-04-15T13:37:56;3.00;;;2.80;;
297;SDS011;133;49.626;9.680;2023-04-15T13:40:22;2.70;;;2.50;;
297;SDS011;133;49.626;9.680;2023-04-15T13:42:47;2.73;;;2.53;;
297;SDS011;133;49.626;9.680;2023-04-15T13:45:16;3.27;;;3.07;;
297;SDS011;133;49.626;9.680;2023-04-15T13:47:42;3.07;;;2.87;;
297;SDS011;133;49.626;9.680;2023-04-15T13:50:07;3.77;;;3.57;;
297;SDS011;133;49.626;9.680;2023-04-15T13:52:33;3.30;;;3.10;;
297;SDS011;133;49.626;9.680;2023-04-15T13:54:59;3.53;;;2.93;;
297;SDS011;133;49.626;9.680;2023-04-15T13:57:25;3.57;;;3.37;;
297;SDS011;133;49.626;9.680;2023-04-15T13:59:51;3.60;;;3.40;;
297;SDS011;133;49.626;9.680;2023-04-15T14:02:16;3.30;;;3.10;;
297;SDS011;133;49.626;9.680;2023-04-15T14:04:42;3.50;;;3.30;;
297;SDS011;133;49.626;9.680;2023-04-15T14:07:07;3.73;;;3.53;;
297;SDS011;133;49.626;9.680;2023-04-15T14:09:33;4.23;;;3.97;;
297;SDS011;133;49.626;9.680;2023-04-15T14:11:59;7.47;;;5.80;;
297;SDS011;133;49.626;9.680;2023-04-15T14:14:26;7.23;;;6.60;;
297;SDS011;133;49.626;9.680;2023-04-15T14:16:51;8.53;;;7.03;;
297;SDS011;133;49.626;9.680;2023-04-15T14:19:17;5.30;;;5.00;;
297;SDS011;133;49.626;9.680;2023-04-15T14:21:43;4.50;;;4.20;;
297;SDS011;133;49.626;9.680;2023-04-15T14:24:08;5.20;;;4.87;;
297;SDS011;133;49.626;9.680;2023-04-15T14:26:34;3.67;;;3.47;;
297;SDS011;133;49.626;9.680;2023-04-15T14:29:00;4.03;;;3.87;;
297;SDS011;133;49.626;9.680;2023-04-15T14:31:26;4.30;;;3.93;;
297;SDS011;133;49.626;9.680;2023-04-15T14:33:51;3.30;;;3.10;;
297;SDS011;133;49.626;9.680;2023-04-15T14:36:18;3.10;;;2.90;;
297;SDS011;133;49.626;9.680;2023-04-15T14:38:44;3.40;;;3.20;;
297;SDS011;133;49.626;9.680;2023-04-15T14:41:10;3.90;;;3.60;;
297;SDS011;133;49.626;9.680;2023-04-15T14:43:36;3.10;;;2.90;;
297;SDS011;133;49.626;9.680;2023-04-15T14:46:02;3.60;;;3.40;;
297;SDS011;133;49.626;9.680;2023-04-15T14:48:28;3.57;;;3.40;;
297;SDS011;133;49.626;9.680;2023-04-15T14:51:04;3.73;;;3.53;;
297;SDS011;133;49.626;9.680;2023-04-15T14:53:30;4.27;;;3.60;;
297;SDS011;133;49.626;9.680;2023-04-15T14:55:56;4.20;;;3.07;;
297;SDS011;133;49.626;9.680;2023-04-15T14:58:21;3.77;;;3.10;;
297;SDS011;133;49.626;9.680;2023-04-15T15:00:47;4.63;;;3.90;;
297;SDS011;133;49.626;9.680;2023-04-15T15:03:12;8.43;;;4.17;;
297;SDS011;133;49.626;9.680;2023-04-15T15:05:42;3.47;;;3.27;;
297;SDS011;133;49.626;9.680;2023-04-15T15:08:09;4.47;;;4.17;;
297;SDS011;133;49.626;9.680;2023-04-15T15:10:35;9.03;;;5.00;;
297;SDS011;133;49.626;9.680;2023-04-15T15:13:03;9.70;;;5.30;;
297;SDS011;133;49.626;9.680;2023-04-15T15:15:30;4.63;;;3.50;;
297;SDS011;133;49.626;9.680;2023-04-15T15:17:56;4.70;;;3.20;;
297;SDS011;133;49.626;9.680;2023-04-15T15:20:21;6.00;;;4.57;;
297;SDS011;133;49.626;9.680;2023-04-15T15:22:48;3.80;;;3.33;;
297;SDS011;133;49.626;9.680;2023-04-15T15:25:13;2.93;;;2.73;;
297;SDS011;133;49.626;9.680;2023-04-15T15:27:42;2.90;;;2.70;;
297;SDS011;133;49.626;9.680;2023-04-15T15:30:08;3.40;;;3.20;;
297;SDS011;133;49.626;9.680;2023-04-15T15:32:34;3.47;;;3.27;;
297;SDS011;133;49.626;9.680;2023-04-15T15:35:00;3.40;;;3.20;;
297;SDS011;133;49.626;9.680;2023-04-15T15:37:26;3.70;;;3.50;;
297;SDS011;133;49.626;9.680;2023-04-15T15:39:54;4.30;;;3.13;;
297;SDS011;133;49.626;9.680;2023-04-15T15:42:20;3.00;;;2.80;;
297;SDS011;133;49.626;9.680;2023-04-15T15:44:46;2.90;;;2.73;;
297;SDS011;133;49.626;9.680;2023-04-15T15:47:13;3.97;;;3.77;;
297;SDS011;133;49.626;9.680;2023-04-15T15:49:39;3.10;;;2.90;;
297;SDS011;133;49.626;9.680;2023-04-15T15:52:05;3.37;;;3.03;;
297;SDS011;133;49.626;9.680;2023-04-15T15:54:31;3.00;;;2.80;;
297;SDS011;133;49.626;9.680;2023-04-15T15:56:57;2.80;;;2.60;;
297;SDS011;133;49.626;9.680;2023-04-15T15:59:23;3.00;;;2.80;;
297;SDS011;133;49.626;9.680;2023-04-15T16:01:49;3.30;;;2.90;;
297;SDS011;133;49.626;9.680;2023-04-15T16:04:15;3.13;;;2.93;;
297;SDS011;133;49.626;9.680;2023-04-15T16:06:41;8.03;;;4.43;;
297;SDS011;133;49.626;9.680;2023-04-15T16:09:09;7.30;;;5.77;;